sensor_id;sensor_type;location;lat;lon;timestamp;temperature;humidity
51175;DHT22;37240;50.104;20.010;2022-09-01T06:46:01;24.20;61.70
51175;DHT22;37240;50.104;20.010;2022-09-01T06:51:03;24.80;59.50
51175;DHT22;37240;50.104;20.010;2022-09-01T06:56:04;25.00;57.50
51175;DHT22;37240;50.104;20.010;2022-09-01T07:01:09;25.00;56.80
51175;DHT22;37240;50.104;20.010;2022-09-01T07:06:10;26.80;53.70
51175;DHT22;37240;50.104;20.010;2022-09-01T07:11:20;28.90;48.70
51175;DHT22;37240;50.104;20.010;2022-09-01T07:16:22;30.30;45.70
51175;DHT22;37240;50.104;20.010;2022-09-01T07:21:24;30.70;44.10
51175;DHT22;37240;50.104;20.010;2022-09-01T07:26:25;30.00;44.80
51175;DHT22;37240;50.104;20.010;2022-09-01T07:31:31;29.20;46.90
51175;DHT22;37240;50.104;20.010;2022-09-01T07:36:32;28.30;47.30
51175;DHT22;37240;50.104;20.010;2022-09-01T07:41:32;28.10;48.30
51175;DHT22;37240;50.104;20.010;2022-09-01T07:46:33;27.50;47.40
51175;DHT22;37240;50.104;20.010;2022-09-01T07:51:34;26.90;48.70
51175;DHT22;37240;50.104;20.010;2022-09-01T07:56:34;26.80;49.30
51175;DHT22;37240;50.104;20.010;2022-09-01T08:01:35;26.70;49.80
51175;DHT22;37240;50.104;20.010;2022-09-01T08:06:35;26.80;50.40
51175;DHT22;37240;50.104;20.010;2022-09-01T08:11:36;26.60;49.70
51175;DHT22;37240;50.104;20.010;2022-09-01T08:16:36;26.30;49.60
51175;DHT22;37240;50.104;20.010;2022-09-01T08:21:37;26.10;50.00
51175;DHT22;37240;50.104;20.010;2022-09-01T08:26:37;26.00;50.40
51175;DHT22;37240;50.104;20.010;2022-09-01T08:31:38;26.00;50.40
51175;DHT22;37240;50.104;20.010;2022-09-01T08:36:38;26.20;49.90
51175;DHT22;37240;50.104;20.010;2022-09-01T08:41:49;26.20;48.30
51175;DHT22;37240;50.104;20.010;2022-09-01T08:47:02;25.90;48.30
51175;DHT22;37240;50.104;20.010;2022-09-01T08:52:27;25.60;49.60
51175;DHT22;37240;50.104;20.010;2022-09-01T08:57:35;25.50;49.40
51175;DHT22;37240;50.104;20.010;2022-09-01T09:13:57;25.00;49.50
51175;DHT22;37240;50.104;20.010;2022-09-01T09:24:09;24.90;51.20
51175;DHT22;37240;50.104;20.010;2022-09-01T09:29:10;25.20;50.60
51175;DHT22;37240;50.104;20.010;2022-09-01T09:39:28;24.80;46.50
51175;DHT22;37240;50.104;20.010;2022-09-01T09:44:32;24.60;46.30
51175;DHT22;37240;50.104;20.010;2022-09-01T09:49:33;24.40;46.20
51175;DHT22;37240;50.104;20.010;2022-09-01T09:54:35;24.30;46.20
51175;DHT22;37240;50.104;20.010;2022-09-01T10:04:45;24.60;46.70
51175;DHT22;37240;50.104;20.010;2022-09-01T10:09:46;24.70;46.10
51175;DHT22;37240;50.104;20.010;2022-09-01T10:15:02;24.70;46.70
51175;DHT22;37240;50.104;20.010;2022-09-01T10:20:19;24.50;46.70
51175;DHT22;37240;50.104;20.010;2022-09-01T10:25:27;24.50;46.40
51175;DHT22;37240;50.104;20.010;2022-09-01T10:30:29;24.10;46.80
51175;DHT22;37240;50.104;20.010;2022-09-01T10:35:32;23.60;46.80
51175;DHT22;37240;50.104;20.010;2022-09-01T10:40:36;23.60;46.70
51175;DHT22;37240;50.104;20.010;2022-09-01T10:45:38;23.50;47.90
51175;DHT22;37240;50.104;20.010;2022-09-01T10:50:38;23.40;46.80
51175;DHT22;37240;50.104;20.010;2022-09-01T10:55:42;23.50;48.50
51175;DHT22;37240;50.104;20.010;2022-09-01T11:00:48;23.40;48.20
51175;DHT22;37240;50.104;20.010;2022-09-01T11:11:03;23.40;49.30
51175;DHT22;37240;50.104;20.010;2022-09-01T11:21:28;23.30;47.60
51175;DHT22;37240;50.104;20.010;2022-09-01T11:31:39;23.40;47.20
51175;DHT22;37240;50.104;20.010;2022-09-01T11:42:06;23.00;46.60
51175;DHT22;37240;50.104;20.010;2022-09-01T11:47:14;23.20;46.50
51175;DHT22;37240;50.104;20.010;2022-09-01T11:52:18;23.50;45.50
51175;DHT22;37240;50.104;20.010;2022-09-01T11:57:26;23.20;45.90
51175;DHT22;37240;50.104;20.010;2022-09-01T12:02:30;23.50;45.60
51175;DHT22;37240;50.104;20.010;2022-09-01T12:07:37;23.60;44.90
51175;DHT22;37240;50.104;20.010;2022-09-01T12:12:38;23.40;44.60
51175;DHT22;37240;50.104;20.010;2022-09-01T12:17:39;23.60;43.70
51175;DHT22;37240;50.104;20.010;2022-09-01T12:22:41;23.60;44.00
51175;DHT22;37240;50.104;20.010;2022-09-01T12:27:42;23.70;43.50
51175;DHT22;37240;50.104;20.010;2022-09-01T12:32:43;23.40;42.00
51175;DHT22;37240;50.104;20.010;2022-09-01T12:37:44;23.30;42.90
51175;DHT22;37240;50.104;20.010;2022-09-01T12:42:50;23.30;43.10
51175;DHT22;37240;50.104;20.010;2022-09-01T12:47:51;23.20;43.50
51175;DHT22;37240;50.104;20.010;2022-09-01T12:52:52;23.20;44.10
51175;DHT22;37240;50.104;20.010;2022-09-01T12:57:55;23.30;44.10
51175;DHT22;37240;50.104;20.010;2022-09-01T13:03:13;23.40;44.40
51175;DHT22;37240;50.104;20.010;2022-09-01T13:08:17;23.50;45.00
51175;DHT22;37240;50.104;20.010;2022-09-01T13:13:18;23.60;45.00
51175;DHT22;37240;50.104;20.010;2022-09-01T13:18:24;23.50;44.60
51175;DHT22;37240;50.104;20.010;2022-09-01T13:23:24;23.60;45.10
51175;DHT22;37240;50.104;20.010;2022-09-01T13:28:25;23.70;45.10
51175;DHT22;37240;50.104;20.010;2022-09-01T13:33:27;23.80;44.50
51175;DHT22;37240;50.104;20.010;2022-09-01T13:38:27;24.00;44.00
51175;DHT22;37240;50.104;20.010;2022-09-01T13:43:28;24.00;42.80
51175;DHT22;37240;50.104;20.010;2022-09-01T13:48:28;24.00;43.00
51175;DHT22;37240;50.104;20.010;2022-09-01T13:53:29;23.80;41.90
51175;DHT22;37240;50.104;20.010;2022-09-01T13:58:29;23.80;41.30
51175;DHT22;37240;50.104;20.010;2022-09-01T14:03:30;23.80;42.00
51175;DHT22;37240;50.104;20.010;2022-09-01T14:08:31;23.70;41.20
51175;DHT22;37240;50.104;20.010;2022-09-01T14:13:32;23.60;41.30
51175;DHT22;37240;50.104;20.010;2022-09-01T14:18:32;23.70;42.20
51175;DHT22;37240;50.104;20.010;2022-09-01T14:23:34;23.80;41.00
51175;DHT22;37240;50.104;20.010;2022-09-01T14:28:35;23.80;41.50
51175;DHT22;37240;50.104;20.010;2022-09-01T14:33:36;23.70;42.30
51175;DHT22;37240;50.104;20.010;2022-09-01T14:38:37;23.10;40.00
51175;DHT22;37240;50.104;20.010;2022-09-01T14:43:38;22.90;41.50
51175;DHT22;37240;50.104;20.010;2022-09-01T14:48:39;22.80;41.80
51175;DHT22;37240;50.104;20.010;2022-09-01T14:53:40;22.90;42.50
51175;DHT22;37240;50.104;20.010;2022-09-01T14:58:41;23.00;42.60
51175;DHT22;37240;50.104;20.010;2022-09-01T15:03:42;23.20;43.10
51175;DHT22;37240;50.104;20.010;2022-09-01T15:08:44;23.10;43.40
51175;DHT22;37240;50.104;20.010;2022-09-01T15:13:45;23.00;44.50
51175;DHT22;37240;50.104;20.010;2022-09-01T15:18:46;23.00;45.20
51175;DHT22;37240;50.104;20.010;2022-09-01T15:23:46;22.90;45.40
51175;DHT22;37240;50.104;20.010;2022-09-01T15:28:48;22.80;45.90
51175;DHT22;37240;50.104;20.010;2022-09-01T15:33:49;22.70;46.80
51175;DHT22;37240;50.104;20.010;2022-09-01T15:38:50;22.70;45.10
51175;DHT22;37240;50.104;20.010;2022-09-01T15:43:50;22.70;45.00
51175;DHT22;37240;50.104;20.010;2022-09-01T15:48:51;22.60;44.90
51175;DHT22;37240;50.104;20.010;2022-09-01T15:53:54;22.20;45.40
51175;DHT22;37240;50.104;20.010;2022-09-01T15:58:56;22.10;45.40
51175;DHT22;37240;50.104;20.010;2022-09-01T16:03:57;22.10;45.60
51175;DHT22;37240;50.104;20.010;2022-09-01T16:08:58;22.10;45.90
51175;DHT22;37240;50.104;20.010;2022-09-01T16:13:59;22.10;46.20
51175;DHT22;37240;50.104;20.010;2022-09-01T16:19:00;22.10;46.70
51175;DHT22;37240;50.104;20.010;2022-09-01T16:24:07;22.10;47.40
51175;DHT22;37240;50.104;20.010;2022-09-01T16:29:11;22.00;47.80
51175;DHT22;37240;50.104;20.010;2022-09-01T16:34:14;21.90;48.00
51175;DHT22;37240;50.104;20.010;2022-09-01T16:39:40;21.90;48.40
51175;DHT22;37240;50.104;20.010;2022-09-01T16:44:57;21.90;48.80
51175;DHT22;37240;50.104;20.010;2022-09-01T16:50:09;22.00;48.90
51175;DHT22;37240;50.104;20.010;2022-09-01T16:55:36;22.10;49.10
51175;DHT22;37240;50.104;20.010;2022-09-01T17:06:05;22.00;48.80
51175;DHT22;37240;50.104;20.010;2022-09-01T17:16:23;21.80;50.00
51175;DHT22;37240;50.104;20.010;2022-09-01T17:21:42;21.60;50.80
51175;DHT22;37240;50.104;20.010;2022-09-01T17:26:44;21.50;51.70
51175;DHT22;37240;50.104;20.010;2022-09-01T17:31:52;21.40;52.10
51175;DHT22;37240;50.104;20.010;2022-09-01T17:37:13;21.20;52.70
51175;DHT22;37240;50.104;20.010;2022-09-01T17:42:31;21.00;53.40
51175;DHT22;37240;50.104;20.010;2022-09-01T17:47:56;20.80;54.20
51175;DHT22;37240;50.104;20.010;2022-09-01T17:58:11;20.80;55.10
51175;DHT22;37240;50.104;20.010;2022-09-01T18:08:43;20.80;55.40
51175;DHT22;37240;50.104;20.010;2022-09-01T18:14:04;20.70;55.60
51175;DHT22;37240;50.104;20.010;2022-09-01T18:25:08;20.60;56.70
51175;DHT22;37240;50.104;20.010;2022-09-01T18:30:15;20.60;57.00
51175;DHT22;37240;50.104;20.010;2022-09-01T18:35:35;20.50;57.40
51175;DHT22;37240;50.104;20.010;2022-09-01T18:45:51;20.30;58.30
51175;DHT22;37240;50.104;20.010;2022-09-01T18:56:09;20.10;58.80
51175;DHT22;37240;50.104;20.010;2022-09-01T19:01:20;20.00;59.10
51175;DHT22;37240;50.104;20.010;2022-09-01T19:11:48;19.80;59.20
51175;DHT22;37240;50.104;20.010;2022-09-01T19:23:24;19.60;59.90
51175;DHT22;37240;50.104;20.010;2022-09-01T19:29:06;19.60;60.30
51175;DHT22;37240;50.104;20.010;2022-09-01T19:34:12;19.60;60.50
51175;DHT22;37240;50.104;20.010;2022-09-01T19:39:16;19.50;61.10
51175;DHT22;37240;50.104;20.010;2022-09-01T19:44:39;19.40;61.20
51175;DHT22;37240;50.104;20.010;2022-09-01T19:49:47;19.40;61.60
51175;DHT22;37240;50.104;20.010;2022-09-01T19:55:03;19.30;62.10
51175;DHT22;37240;50.104;20.010;2022-09-01T20:05:55;19.00;63.10
51175;DHT22;37240;50.104;20.010;2022-09-01T20:11:02;18.90;63.50
51175;DHT22;37240;50.104;20.010;2022-09-01T20:16:12;18.90;63.80
51175;DHT22;37240;50.104;20.010;2022-09-01T20:21:16;18.80;64.30
51175;DHT22;37240;50.104;20.010;2022-09-01T20:26:23;18.80;64.50
51175;DHT22;37240;50.104;20.010;2022-09-01T20:31:38;18.70;64.50
51175;DHT22;37240;50.104;20.010;2022-09-01T20:46:57;18.60;66.20
51175;DHT22;37240;50.104;20.010;2022-09-01T20:52:14;18.50;66.40
51175;DHT22;37240;50.104;20.010;2022-09-01T21:02:39;18.50;67.10
51175;DHT22;37240;50.104;20.010;2022-09-01T21:23:55;18.20;68.20
51175;DHT22;37240;50.104;20.010;2022-09-01T21:28:57;18.10;68.40
51175;DHT22;37240;50.104;20.010;2022-09-01T21:34:03;18.00;68.80
51175;DHT22;37240;50.104;20.010;2022-09-01T21:39:04;17.90;69.30
51175;DHT22;37240;50.104;20.010;2022-09-01T21:44:05;17.90;70.00
51175;DHT22;37240;50.104;20.010;2022-09-01T21:49:05;17.80;70.10
51175;DHT22;37240;50.104;20.010;2022-09-01T21:54:07;17.80;70.60
51175;DHT22;37240;50.104;20.010;2022-09-01T21:59:07;17.80;70.80
51175;DHT22;37240;50.104;20.010;2022-09-01T22:04:08;17.70;71.50
51175;DHT22;37240;50.104;20.010;2022-09-01T22:09:09;17.70;72.00
51175;DHT22;37240;50.104;20.010;2022-09-01T22:14:10;17.60;72.40
51175;DHT22;37240;50.104;20.010;2022-09-01T22:19:11;17.60;72.60
51175;DHT22;37240;50.104;20.010;2022-09-01T22:24:11;17.50;73.10
51175;DHT22;37240;50.104;20.010;2022-09-01T22:29:12;17.40;73.50
51175;DHT22;37240;50.104;20.010;2022-09-01T22:34:13;17.30;73.90
51175;DHT22;37240;50.104;20.010;2022-09-01T22:39:14;17.30;74.30
51175;DHT22;37240;50.104;20.010;2022-09-01T22:44:15;17.30;74.40
51175;DHT22;37240;50.104;20.010;2022-09-01T22:49:16;17.20;75.20
51175;DHT22;37240;50.104;20.010;2022-09-01T22:54:16;17.10;75.50
51175;DHT22;37240;50.104;20.010;2022-09-01T22:59:17;17.00;75.70
51175;DHT22;37240;50.104;20.010;2022-09-01T23:04:17;17.00;76.30
51175;DHT22;37240;50.104;20.010;2022-09-01T23:09:19;16.90;76.50
51175;DHT22;37240;50.104;20.010;2022-09-01T23:14:20;16.90;76.60
51175;DHT22;37240;50.104;20.010;2022-09-01T23:19:21;16.90;77.00
51175;DHT22;37240;50.104;20.010;2022-09-01T23:24:22;16.80;77.10
51175;DHT22;37240;50.104;20.010;2022-09-01T23:29:23;16.80;77.50
51175;DHT22;37240;50.104;20.010;2022-09-01T23:34:23;16.70;77.50
51175;DHT22;37240;50.104;20.010;2022-09-01T23:39:24;16.70;77.80
51175;DHT22;37240;50.104;20.010;2022-09-01T23:44:24;16.70;78.10
51175;DHT22;37240;50.104;20.010;2022-09-01T23:49:25;16.70;78.30
51175;DHT22;37240;50.104;20.010;2022-09-01T23:54:25;16.50;78.70
51175;DHT22;37240;50.104;20.010;2022-09-01T23:59:27;16.60;79.30
